Time;durP1;ratioP1;P1;durP2;ratioP2;P2;SDS_P1;SDS_P2;PMS_P1;PMS_P2;Temp;Humidity;BMP_temperature;BMP_pressure;BME280_temperature;BME280_humidity;BME280_pressure;Samples;Min_cycle;Max_cycle;Signal;HPM_P1;HPM_P2
2022/07/07 00:03:46;;;;;;;2.87;2.07;;;;;;;;;;10465811;28;20044;-75
2022/07/07 00:08:54;;;;;;;3.60;2.40;;;;;;;;;;10461494;28;20059;-74
2022/07/07 00:13:57;;;;;;;3.60;2.10;;;;;;;;;;10455326;28;20044;-75
2022/07/07 00:19:01;;;;;;;6.43;2.22;;;;;;;;;;10474409;28;20068;-75
2022/07/07 00:24:05;;;;;;;3.75;2.30;;;;;;;;;;10459846;28;20143;-75
2022/07/07 00:29:08;;;;;;;2.20;1.77;;;;;;;;;;10464535;28;20049;-75
2022/07/07 00:34:11;;;;;;;3.87;1.87;;;;;;;;;;10455362;28;20094;-75
2022/07/07 00:39:15;;;;;;;5.60;1.92;;;;;;;;;;10466013;28;20045;-74
2022/07/07 00:44:20;;;;;;;3.42;1.95;;;;;;;;;;10452779;28;20056;-74
2022/07/07 00:49:22;;;;;;;7.07;2.38;;;;;;;;;;10477274;28;20516;-75
2022/07/07 00:54:26;;;;;;;4.83;1.87;;;;;;;;;;10459083;28;20128;-76
2022/07/07 00:59:30;;;;;;;5.45;2.33;;;;;;;;;;10476121;28;20041;-75
2022/07/07 01:04:36;;;;;;;2.95;1.92;;;;;;;;;;10449113;28;20036;-76
2022/07/07 01:09:41;;;;;;;4.50;2.20;;;;;;;;;;10471777;28;20048;-76
2022/07/07 01:14:45;;;;;;;4.50;2.47;;;;;;;;;;10451268;28;20128;-76
2022/07/07 01:19:49;;;;;;;3.38;2.20;;;;;;;;;;10459443;28;20700;-75
2022/07/07 01:24:54;;;;;;;2.10;1.63;;;;;;;;;;10480567;28;20036;-77
2022/07/07 01:30:03;;;;;;;5.35;2.30;;;;;;;;;;10461547;28;20055;-75
2022/07/07 01:35:13;;;;;;;5.32;2.45;;;;;;;;;;10458173;28;20040;-75
2022/07/07 01:40:19;;;;;;;6.85;2.42;;;;;;;;;;10478434;28;20041;-76
2022/07/07 01:45:22;;;;;;;6.82;2.72;;;;;;;;;;10480918;28;20041;-75
2022/07/07 01:50:24;;;;;;;4.03;2.40;;;;;;;;;;10471366;28;20043;-76
2022/07/07 01:55:28;;;;;;;2.50;1.90;;;;;;;;;;10473600;28;20036;-75
2022/07/07 02:00:31;;;;;;;3.90;2.17;;;;;;;;;;10466320;28;20044;-76
2022/07/07 02:05:38;;;;;;;7.15;2.30;;;;;;;;;;10473832;28;20040;-75
2022/07/07 02:16:02;;;;;;;4.20;2.42;;;;;;;;;;10476920;28;20040;-75
2022/07/07 02:21:06;;;;;;;2.80;2.30;;;;;;;;;;10459327;28;20043;-74
2022/07/07 02:26:10;;;;;;;5.15;2.25;;;;;;;;;;10471835;28;20426;-74
2022/07/07 02:31:13;;;;;;;3.17;2.50;;;;;;;;;;10477690;28;20041;-77
2022/07/07 02:36:16;;;;;;;7.10;2.60;;;;;;;;;;10460830;28;20051;-74
2022/07/07 02:41:20;;;;;;;5.23;2.20;;;;;;;;;;10473463;28;20143;-75
2022/07/07 02:46:23;;;;;;;6.43;2.30;;;;;;;;;;10474106;28;20033;-75
2022/07/07 02:51:26;;;;;;;5.47;3.23;;;;;;;;;;10459815;28;20588;-75
2022/07/07 02:56:30;;;;;;;3.85;2.20;;;;;;;;;;10458356;28;20303;-74
2022/07/07 03:01:33;;;;;;;6.15;2.30;;;;;;;;;;10468084;28;20048;-74
2022/07/07 03:06:37;;;;;;;7.18;2.70;;;;;;;;;;10456806;28;20424;-75
2022/07/07 03:11:41;;;;;;;3.08;2.42;;;;;;;;;;10481589;28;20054;-75
2022/07/07 03:16:44;;;;;;;7.13;2.40;;;;;;;;;;10471855;28;20489;-75
2022/07/07 03:21:47;;;;;;;6.70;2.97;;;;;;;;;;10478693;28;20060;-74
2022/07/07 03:26:51;;;;;;;3.00;2.07;;;;;;;;;;10481065;28;20029;-76
2022/07/07 03:31:56;;;;;;;4.22;2.13;;;;;;;;;;10468102;28;20431;-77
2022/07/07 03:36:58;;;;;;;5.47;2.83;;;;;;;;;;10485546;28;20032;-77
2022/07/07 03:42:03;;;;;;;7.23;2.27;;;;;;;;;;10475796;28;20064;-77
2022/07/07 03:47:06;;;;;;;3.72;1.52;;;;;;;;;;10482279;28;20032;-77
2022/07/07 03:52:08;;;;;;;5.93;2.10;;;;;;;;;;10454566;28;20501;-76
2022/07/07 03:57:13;;;;;;;4.80;2.60;;;;;;;;;;10478857;28;20350;-74
2022/07/07 04:02:15;;;;;;;6.20;3.08;;;;;;;;;;10454593;28;20321;-75
2022/07/07 04:07:18;;;;;;;4.70;2.90;;;;;;;;;;10475914;28;20063;-76
2022/07/07 04:12:23;;;;;;;4.68;2.40;;;;;;;;;;10478203;28;20048;-75
2022/07/07 04:17:26;;;;;;;5.07;2.70;;;;;;;;;;10486909;28;20060;-75
2022/07/07 04:22:29;;;;;;;5.67;2.60;;;;;;;;;;10470934;28;20052;-77
2022/07/07 04:27:33;;;;;;;4.03;2.60;;;;;;;;;;10482463;28;20090;-76
2022/07/07 04:32:36;;;;;;;4.10;2.40;;;;;;;;;;10470623;28;20091;-76
2022/07/07 04:37:39;;;;;;;3.87;2.23;;;;;;;;;;10461926;28;20040;-74
2022/07/07 04:42:44;;;;;;;5.05;2.60;;;;;;;;;;10481371;28;20043;-76
2022/07/07 04:47:47;;;;;;;3.10;1.90;;;;;;;;;;10476861;28;20036;-75
2022/07/07 04:52:50;;;;;;;3.43;2.37;;;;;;;;;;10470648;28;20044;-76
2022/07/07 04:57:54;;;;;;;4.33;1.60;;;;;;;;;;10493291;28;20036;-76
2022/07/07 05:02:56;;;;;;;5.72;2.60;;;;;;;;;;10485306;28;20037;-77
2022/07/07 05:07:59;;;;;;;4.37;2.20;;;;;;;;;;10471860;28;20036;-77
2022/07/07 05:13:03;;;;;;;4.53;2.07;;;;;;;;;;10488207;28;20033;-76
2022/07/07 05:18:06;;;;;;;2.97;1.90;;;;;;;;;;10474544;28;20078;-77
2022/07/07 05:23:09;;;;;;;6.60;2.33;;;;;;;;;;10459372;28;20036;-76
2022/07/07 05:28:13;;;;;;;4.30;2.47;;;;;;;;;;10489682;28;20057;-77
2022/07/07 05:33:16;;;;;;;3.15;1.90;;;;;;;;;;10464932;28;20095;-77
2022/07/07 05:38:18;;;;;;;3.67;1.93;;;;;;;;;;10486500;28;20032;-77
2022/07/07 05:43:23;;;;;;;6.97;2.00;;;;;;;;;;10460385;28;20126;-76
2022/07/07 05:48:27;;;;;;;4.75;2.40;;;;;;;;;;10473129;28;20066;-76
2022/07/07 05:53:30;;;;;;;3.57;1.30;;;;;;;;;;10467043;28;20052;-75
2022/07/07 05:58:34;;;;;;;6.43;2.30;;;;;;;;;;10500210;28;20033;-76
2022/07/07 06:03:36;;;;;;;3.65;2.13;;;;;;;;;;10497670;28;20294;-76
2022/07/07 06:08:39;;;;;;;4.50;1.85;;;;;;;;;;10481242;28;20081;-76
2022/07/07 06:13:44;;;;;;;4.82;2.30;;;;;;;;;;10499183;28;20737;-76
2022/07/07 06:18:46;;;;;;;4.30;1.88;;;;;;;;;;10470254;28;20068;-76
2022/07/07 06:23:52;;;;;;;5.55;1.90;;;;;;;;;;10469940;28;20068;-77
2022/07/07 06:28:57;;;;;;;4.07;2.03;;;;;;;;;;10475113;28;20634;-77
2022/07/07 06:34:00;;;;;;;5.65;2.03;;;;;;;;;;10462512;28;20128;-75
2022/07/07 06:39:03;;;;;;;3.78;1.80;;;;;;;;;;10480994;28;20036;-76
2022/07/07 06:44:09;;;;;;;2.20;1.58;;;;;;;;;;10459497;28;20068;-77
2022/07/07 06:49:13;;;;;;;2.72;1.70;;;;;;;;;;10482399;28;20040;-76
2022/07/07 06:54:16;;;;;;;6.35;1.98;;;;;;;;;;10477059;28;20539;-76
2022/07/07 06:59:20;;;;;;;5.15;2.08;;;;;;;;;;10462650;28;20511;-77
2022/07/07 07:04:23;;;;;;;2.53;1.25;;;;;;;;;;10473663;28;20059;-76
2022/07/07 07:09:26;;;;;;;5.68;1.73;;;;;;;;;;10468775;28;20047;-77
2022/07/07 07:14:32;;;;;;;3.47;1.70;;;;;;;;;;10451605;28;20067;-77
2022/07/07 07:19:34;;;;;;;2.20;1.35;;;;;;;;;;10489189;28;20039;-77
2022/07/07 07:24:37;;;;;;;4.63;1.70;;;;;;;;;;10454128;28;20091;-76
2022/07/07 07:29:43;;;;;;;2.10;1.38;;;;;;;;;;10461234;28;20056;-77
2022/07/07 07:34:46;;;;;;;1.83;1.40;;;;;;;;;;10460700;28;20072;-77
2022/07/07 07:39:52;;;;;;;3.65;1.70;;;;;;;;;;10477710;28;20036;-77
2022/07/07 07:45:12;;;;;;;2.17;1.35;;;;;;;;;;10475635;28;20500;-77
2022/07/07 07:50:20;;;;;;;3.00;1.60;;;;;;;;;;10460033;28;20040;-77
2022/07/07 07:55:25;;;;;;;3.85;1.60;;;;;;;;;;10483331;28;20044;-77
2022/07/07 08:00:30;;;;;;;3.72;1.85;;;;;;;;;;10478819;28;20566;-77
2022/07/07 08:05:40;;;;;;;3.13;1.50;;;;;;;;;;10478584;28;20040;-77
2022/07/07 08:10:49;;;;;;;2.63;1.58;;;;;;;;;;10458495;28;20396;-77
2022/07/07 08:15:56;;;;;;;3.17;1.52;;;;;;;;;;10461802;28;20072;-76
2022/07/07 08:20:59;;;;;;;1.15;1.00;;;;;;;;;;10460288;28;20090;-77
2022/07/07 08:26:02;;;;;;;;;;;;;;;;;;10459736;28;20033;-77
2022/07/07 08:31:08;;;;;;;3.22;1.60;;;;;;;;;;10465578;28;20631;-76
2022/07/07 08:36:11;;;;;;;3.50;1.42;;;;;;;;;;10460955;28;20103;-77
2022/07/07 08:41:15;;;;;;;1.90;1.10;;;;;;;;;;10476171;28;20045;-76
2022/07/07 08:46:19;;;;;;;3.75;1.88;;;;;;;;;;10462260;28;20052;-76
2022/07/07 08:51:23;;;;;;;2.25;1.60;;;;;;;;;;10486179;28;20036;-77
2022/07/07 08:56:25;;;;;;;2.03;1.42;;;;;;;;;;10472196;28;20041;-76
2022/07/07 09:01:30;;;;;;;3.28;1.50;;;;;;;;;;10460425;28;20488;-77
2022/07/07 09:06:33;;;;;;;3.47;1.70;;;;;;;;;;10480945;28;20119;-77
2022/07/07 09:11:39;;;;;;;1.95;1.20;;;;;;;;;;10470640;28;20068;-76
2022/07/07 09:16:41;;;;;;;;;;;;;;;;;;10486458;28;20043;-77
2022/07/07 09:21:46;;;;;;;5.45;2.00;;;;;;;;;;10477787;28;20444;-77
2022/07/07 09:26:52;;;;;;;2.47;1.60;;;;;;;;;;10474957;28;20072;-77
2022/07/07 09:31:56;;;;;;;3.03;1.80;;;;;;;;;;10481832;28;20032;-77
2022/07/07 09:42:23;;;;;;;1.15;1.13;;;;;;;;;;10482415;28;20109;-77
2022/07/07 09:47:27;;;;;;;3.13;1.90;;;;;;;;;;10468983;28;20560;-77
2022/07/07 09:52:34;;;;;;;2.00;1.50;;;;;;;;;;10487713;28;20505;-77
2022/07/07 09:57:37;;;;;;;3.90;1.60;;;;;;;;;;10465316;28;20047;-77
2022/07/07 10:02:42;;;;;;;4.22;2.00;;;;;;;;;;10483901;28;20082;-77
2022/07/07 10:07:48;;;;;;;3.92;1.80;;;;;;;;;;10472362;28;20579;-77
2022/07/07 10:12:53;;;;;;;3.08;2.20;;;;;;;;;;10482285;28;20408;-75
2022/07/07 10:17:57;;;;;;;4.50;2.25;;;;;;;;;;10480723;28;20055;-76
2022/07/07 10:23:02;;;;;;;5.53;2.33;;;;;;;;;;10454771;28;20508;-75
2022/07/07 10:28:05;;;;;;;3.35;2.20;;;;;;;;;;10463360;28;20051;-76
2022/07/07 10:33:08;;;;;;;;;;;;;;;;;;10473219;28;20473;-76
2022/07/07 10:38:17;;;;;;;4.17;2.30;;;;;;;;;;10485092;28;19920;-76
2022/07/07 10:43:24;;;;;;;4.30;2.10;;;;;;;;;;10479592;28;20155;-76
2022/07/07 10:48:41;;;;;;;3.58;1.90;;;;;;;;;;10480266;28;20067;-75
2022/07/07 10:54:03;;;;;;;3.55;1.70;;;;;;;;;;10480110;28;20833;-76
2022/07/07 10:59:07;;;;;;;6.22;2.38;;;;;;;;;;10470433;28;20072;-77
2022/07/07 11:04:09;;;;;;;2.50;1.90;;;;;;;;;;10481834;28;20056;-76
2022/07/07 11:09:13;;;;;;;2.42;1.70;;;;;;;;;;10480199;28;20076;-75
2022/07/07 11:14:18;;;;;;;2.60;1.80;;;;;;;;;;10455059;28;20041;-76
2022/07/07 11:19:24;;;;;;;4.50;1.90;;;;;;;;;;10468005;28;20071;-76
2022/07/07 11:24:27;;;;;;;2.72;1.25;;;;;;;;;;10458219;28;20440;-77
2022/07/07 11:29:31;;;;;;;5.78;2.20;;;;;;;;;;10472631;28;20094;-76
2022/07/07 11:34:44;;;;;;;7.97;3.45;;;;;;;;;;10470009;28;20632;-75
2022/07/07 11:39:47;;;;;;;3.50;1.58;;;;;;;;;;10455171;28;20048;-76
2022/07/07 11:44:52;;;;;;;2.92;1.50;;;;;;;;;;10465066;28;20033;-75
2022/07/07 11:49:56;;;;;;;7.15;2.03;;;;;;;;;;10463096;28;20362;-76
2022/07/07 11:54:59;;;;;;;;;;;;;;;;;;10469147;28;20129;-76
2022/07/07 12:00:16;;;;;;;3.15;2.00;;;;;;;;;;10480397;28;19932;-76
2022/07/07 12:05:20;;;;;;;4.18;2.00;;;;;;;;;;10482584;28;20060;-77
2022/07/07 12:10:24;;;;;;;5.72;1.90;;;;;;;;;;10483648;28;20036;-75
2022/07/07 12:15:29;;;;;;;4.10;1.77;;;;;;;;;;10462764;28;20049;-74
2022/07/07 12:20:32;;;;;;;4.93;1.95;;;;;;;;;;10474659;28;20043;-76
2022/07/07 12:25:39;;;;;;;4.25;1.98;;;;;;;;;;10468803;28;20036;-76
2022/07/07 12:30:53;;;;;;;3.40;1.70;;;;;;;;;;10491333;28;20485;-77
2022/07/07 12:35:59;;;;;;;3.83;2.00;;;;;;;;;;10475692;28;20040;-75
2022/07/07 12:41:01;;;;;;;2.95;1.70;;;;;;;;;;10481058;28;20024;-75
2022/07/07 12:46:04;;;;;;;;;;;;;;;;;;10484648;28;20040;-75
2022/07/07 12:51:08;;;;;;;5.63;2.30;;;;;;;;;;10466038;28;19964;-76
2022/07/07 12:56:13;;;;;;;3.45;2.13;;;;;;;;;;10488370;28;20040;-76
2022/07/07 13:01:18;;;;;;;3.33;2.22;;;;;;;;;;10459415;28;20068;-75
2022/07/07 13:06:23;;;;;;;8.07;2.15;;;;;;;;;;10489613;28;20052;-76
2022/07/07 13:11:26;;;;;;;4.93;2.30;;;;;;;;;;10469069;28;20064;-75
2022/07/07 13:16:29;;;;;;;6.97;2.10;;;;;;;;;;10487545;28;20052;-75
2022/07/07 13:21:33;;;;;;;4.32;2.42;;;;;;;;;;10481092;28;20044;-76
2022/07/07 13:26:36;;;;;;;6.07;2.38;;;;;;;;;;10464841;28;20565;-76
2022/07/07 13:31:41;;;;;;;5.15;2.50;;;;;;;;;;10467568;28;20088;-75
2022/07/07 13:36:46;;;;;;;7.65;2.67;;;;;;;;;;10493033;28;20476;-75
2022/07/07 13:41:50;;;;;;;5.63;3.22;;;;;;;;;;10460597;28;20040;-75
2022/07/07 13:47:15;;;;;;;4.60;3.40;;;;;;;;;;10482392;28;20044;-76
2022/07/07 13:52:19;;;;;;;7.72;4.00;;;;;;;;;;10475304;28;20097;-75
2022/07/07 13:57:22;;;;;;;12.32;4.85;;;;;;;;;;10490968;28;20144;-76
2022/07/07 14:02:26;;;;;;;9.75;5.05;;;;;;;;;;10472175;28;20437;-75
2022/07/07 14:07:38;;;;;;;9.18;4.43;;;;;;;;;;10469984;28;20644;-76
2022/07/07 14:12:41;;;;;;;6.50;4.32;;;;;;;;;;10484404;28;20083;-76
2022/07/07 14:17:43;;;;;;;5.27;3.87;;;;;;;;;;10497885;28;20062;-76
2022/07/07 14:22:48;;;;;;;6.97;3.80;;;;;;;;;;10460153;28;20691;-75
2022/07/07 14:27:51;;;;;;;5.85;3.60;;;;;;;;;;10459506;28;20408;-76
2022/07/07 14:32:54;;;;;;;6.80;3.58;;;;;;;;;;10468111;28;20044;-76
2022/07/07 14:37:58;;;;;;;6.63;4.20;;;;;;;;;;10467152;28;20067;-74
2022/07/07 14:43:08;;;;;;;5.43;3.53;;;;;;;;;;10448462;28;20136;-74
2022/07/07 14:48:11;;;;;;;5.00;3.70;;;;;;;;;;10464369;28;20060;-73
2022/07/07 14:53:15;;;;;;;6.43;3.78;;;;;;;;;;10478826;28;20402;-75
2022/07/07 14:58:18;;;;;;;6.40;3.92;;;;;;;;;;10456544;28;20052;-76
2022/07/07 15:03:21;;;;;;;5.28;3.22;;;;;;;;;;10451266;28;20117;-73
2022/07/07 15:08:25;;;;;;;7.95;3.53;;;;;;;;;;10466948;28;20063;-74
2022/07/07 15:13:28;;;;;;;7.10;4.10;;;;;;;;;;10471488;28;20024;-76
2022/07/07 15:18:31;;;;;;;7.72;4.13;;;;;;;;;;10481509;28;20786;-73
2022/07/07 15:23:37;;;;;;;8.05;4.32;;;;;;;;;;10461318;28;20040;-74
2022/07/07 15:28:39;;;;;;;10.57;5.50;;;;;;;;;;10462656;28;20040;-71
2022/07/07 15:33:42;;;;;;;5.70;3.50;;;;;;;;;;10481097;28;20512;-74
2022/07/07 15:38:47;;;;;;;6.35;3.28;;;;;;;;;;10481783;28;20085;-72
2022/07/07 15:43:49;;;;;;;5.70;3.15;;;;;;;;;;10464936;28;20098;-71
2022/07/07 15:48:52;;;;;;;5.50;4.10;;;;;;;;;;10479328;28;20039;-71
2022/07/07 15:53:56;;;;;;;8.38;4.43;;;;;;;;;;10465996;28;20399;-71
2022/07/07 15:59:04;;;;;;;4.80;3.40;;;;;;;;;;10490693;28;20041;-70
2022/07/07 16:09:29;;;;;;;6.72;4.00;;;;;;;;;;10487513;28;20642;-71
2022/07/07 16:14:32;;;;;;;5.55;3.40;;;;;;;;;;10484517;28;20040;-70
2022/07/07 16:19:35;;;;;;;8.27;4.20;;;;;;;;;;10468282;28;20151;-71
2022/07/07 16:24:39;;;;;;;5.15;3.60;;;;;;;;;;10481856;28;20032;-73
2022/07/07 16:29:42;;;;;;;5.55;3.55;;;;;;;;;;10504937;28;20039;-70
2022/07/07 16:34:45;;;;;;;7.35;3.88;;;;;;;;;;10486511;28;20382;-72
2022/07/07 16:39:49;;;;;;;5.82;3.40;;;;;;;;;;10483481;28;20128;-71
2022/07/07 16:44:52;;;;;;;4.88;2.90;;;;;;;;;;10488293;28;20128;-72
2022/07/07 16:49:54;;;;;;;6.65;2.63;;;;;;;;;;10492450;28;20040;-72
2022/07/07 16:54:59;;;;;;;8.43;2.70;;;;;;;;;;10479302;28;20040;-71
2022/07/07 17:00:01;;;;;;;3.72;2.28;;;;;;;;;;10502017;28;20689;-71
2022/07/07 17:05:04;;;;;;;;;;;;;;;;;;10501594;28;20044;-69
2022/07/07 17:10:09;;;;;;;2.63;1.80;;;;;;;;;;10483072;28;20011;-70
2022/07/07 17:15:12;;;;;;;3.70;2.10;;;;;;;;;;10492233;28;21408;-71
2022/07/07 17:20:15;;;;;;;2.95;1.65;;;;;;;;;;10471469;28;20052;-71
2022/07/07 17:25:19;;;;;;;1.65;1.15;;;;;;;;;;10482244;28;20731;-72
2022/07/07 17:30:22;;;;;;;1.30;1.05;;;;;;;;;;10486954;28;20401;-73
2022/07/07 17:35:25;;;;;;;5.90;2.30;;;;;;;;;;10484183;28;20549;-71
2022/07/07 17:40:29;;;;;;;2.05;1.48;;;;;;;;;;10467769;28;20480;-70
2022/07/07 17:45:32;;;;;;;2.95;1.70;;;;;;;;;;10483019;28;20417;-71
2022/07/07 17:50:35;;;;;;;2.40;1.60;;;;;;;;;;10464937;28;20746;-70
2022/07/07 17:55:39;;;;;;;;;;;;;;;;;;10475276;28;20036;-78
2022/07/07 18:00:44;;;;;;;2.22;1.70;;;;;;;;;;10490269;28;19931;-81
2022/07/07 18:05:47;;;;;;;2.08;1.73;;;;;;;;;;10471760;28;20036;-80
2022/07/07 18:10:49;;;;;;;4.17;2.00;;;;;;;;;;10470965;28;20052;-79
2022/07/07 18:15:54;;;;;;;4.63;2.10;;;;;;;;;;10483711;28;20048;-80
2022/07/07 18:20:58;;;;;;;3.10;1.88;;;;;;;;;;10500792;28;20063;-79
2022/07/07 18:26:02;;;;;;;2.78;1.80;;;;;;;;;;10500896;28;20040;-79
2022/07/07 18:31:06;;;;;;;4.30;2.50;;;;;;;;;;10508654;28;20044;-80
2022/07/07 18:36:09;;;;;;;4.88;1.83;;;;;;;;;;10480366;28;20804;-80
2022/07/07 18:41:12;;;;;;;3.38;2.22;;;;;;;;;;10478770;28;20051;-85
2022/07/07 18:46:16;;;;;;;4.38;2.30;;;;;;;;;;10488129;28;20378;-72
2022/07/07 18:51:37;;;;;;;4.63;2.28;;;;;;;;;;10475087;28;20048;-73
2022/07/07 18:56:40;;;;;;;4.82;1.88;;;;;;;;;;10489244;28;20067;-75
2022/07/07 19:01:44;;;;;;;6.47;2.50;;;;;;;;;;10487004;28;20629;-76
2022/07/07 19:06:48;;;;;;;4.45;2.45;;;;;;;;;;10466521;28;20062;-74
2022/07/07 19:11:51;;;;;;;4.55;2.85;;;;;;;;;;10486664;28;20020;-74
2022/07/07 19:16:55;;;;;;;4.90;2.90;;;;;;;;;;10488382;28;20032;-75
2022/07/07 19:21:58;;;;;;;4.35;2.58;;;;;;;;;;10477666;28;20119;-75
2022/07/07 19:27:01;;;;;;;4.13;2.87;;;;;;;;;;10492848;28;20032;-74
2022/07/07 19:32:05;;;;;;;5.03;2.70;;;;;;;;;;10489124;28;20028;-73
2022/07/07 19:37:10;;;;;;;4.93;2.92;;;;;;;;;;10472476;28;20047;-74
2022/07/07 19:42:12;;;;;;;5.78;2.95;;;;;;;;;;10483122;28;20041;-72
2022/07/07 19:47:18;;;;;;;3.87;2.67;;;;;;;;;;10474543;28;20044;-73
2022/07/07 19:52:21;;;;;;;4.88;3.10;;;;;;;;;;10489376;28;20070;-72
2022/07/07 19:57:24;;;;;;;5.57;2.90;;;;;;;;;;10483098;28;20036;-74
2022/07/07 20:02:28;;;;;;;4.50;2.70;;;;;;;;;;10473582;28;20153;-73
2022/07/07 20:07:31;;;;;;;5.50;2.92;;;;;;;;;;10483201;28;20055;-74
2022/07/07 20:12:34;;;;;;;7.67;4.23;;;;;;;;;;10485934;28;20033;-76
2022/07/07 20:17:39;;;;;;;4.82;3.22;;;;;;;;;;10488024;28;20044;-78
2022/07/07 20:22:42;;;;;;;5.55;2.95;;;;;;;;;;10482228;28;20040;-76
2022/07/07 20:27:45;;;;;;;4.07;2.47;;;;;;;;;;10486259;28;20052;-77
2022/07/07 20:32:49;;;;;;;6.07;2.90;;;;;;;;;;10472342;28;20077;-77
2022/07/07 20:37:52;;;;;;;4.57;2.55;;;;;;;;;;10487805;28;20389;-77
2022/07/07 20:42:55;;;;;;;4.55;2.83;;;;;;;;;;10494905;28;20043;-76
2022/07/07 20:48:00;;;;;;;5.47;3.15;;;;;;;;;;10477608;28;20041;-78
2022/07/07 20:53:23;;;;;;;3.65;2.22;;;;;;;;;;10497296;28;20032;-77
2022/07/07 20:58:26;;;;;;;7.07;2.88;;;;;;;;;;10475202;28;20082;-77
2022/07/07 21:03:31;;;;;;;4.97;2.83;;;;;;;;;;10498273;28;20417;-77
2022/07/07 21:08:34;;;;;;;4.88;2.88;;;;;;;;;;10489396;28;20040;-77
2022/07/07 21:13:36;;;;;;;6.13;3.03;;;;;;;;;;10478520;28;20056;-78
2022/07/07 21:18:41;;;;;;;6.05;2.97;;;;;;;;;;10486866;28;20440;-80
2022/07/07 21:23:44;;;;;;;4.63;2.58;;;;;;;;;;10502856;28;20051;-79
2022/07/07 21:28:47;;;;;;;6.73;2.87;;;;;;;;;;10479797;28;20683;-79
2022/07/07 21:33:51;;;;;;;2.50;1.75;;;;;;;;;;10485144;28;20351;-78
2022/07/07 21:38:54;;;;;;;6.93;2.90;;;;;;;;;;10500138;28;20044;-79
2022/07/07 21:43:57;;;;;;;5.93;2.90;;;;;;;;;;10480141;28;20095;-77
2022/07/07 21:49:01;;;;;;;3.78;2.58;;;;;;;;;;10485469;28;20389;-78
2022/07/07 21:54:04;;;;;;;5.90;2.65;;;;;;;;;;10502579;28;20032;-79
2022/07/07 21:59:06;;;;;;;5.43;3.20;;;;;;;;;;10481203;28;20980;-79
2022/07/07 22:09:31;;;;;;;6.35;3.30;;;;;;;;;;10475917;28;20051;-78
2022/07/07 22:14:35;;;;;;;7.15;3.05;;;;;;;;;;10500137;28;20041;-77
2022/07/07 22:19:39;;;;;;;7.77;3.13;;;;;;;;;;10505121;28;20070;-80
2022/07/07 22:24:42;;;;;;;5.20;3.08;;;;;;;;;;10499042;28;20040;-79
2022/07/07 22:29:45;;;;;;;;;;;;;;;;;;10497758;28;20079;-77
2022/07/07 22:34:49;;;;;;;6.05;3.10;;;;;;;;;;10481243;28;19921;-78
2022/07/07 22:39:52;;;;;;;6.22;2.83;;;;;;;;;;10497412;28;20047;-77
2022/07/07 22:44:55;;;;;;;4.22;2.38;;;;;;;;;;10482113;28;20036;-77
2022/07/07 22:49:59;;;;;;;5.68;3.20;;;;;;;;;;10485642;28;20044;-79
2022/07/07 22:55:02;;;;;;;5.50;2.83;;;;;;;;;;10500072;28;20489;-79
2022/07/07 23:00:06;;;;;;;5.75;2.83;;;;;;;;;;10482409;28;20098;-78
2022/07/07 23:05:10;;;;;;;7.70;3.35;;;;;;;;;;10479452;28;20090;-79
2022/07/07 23:10:13;;;;;;;5.40;3.30;;;;;;;;;;10494311;28;20059;-78
2022/07/07 23:15:16;;;;;;;;;;;;;;;;;;10497791;28;20037;-79
2022/07/07 23:20:20;;;;;;;8.38;3.33;;;;;;;;;;10492116;28;19920;-77
2022/07/07 23:25:23;;;;;;;4.28;2.40;;;;;;;;;;10494756;28;20036;-77
2022/07/07 23:30:26;;;;;;;6.07;2.65;;;;;;;;;;10471962;28;20075;-76
2022/07/07 23:35:30;;;;;;;5.85;2.05;;;;;;;;;;10471940;28;20064;-76
2022/07/07 23:40:33;;;;;;;6.30;2.95;;;;;;;;;;10489247;28;20570;-76
2022/07/07 23:45:35;;;;;;;4.80;2.90;;;;;;;;;;10470656;28;20055;-77
2022/07/07 23:50:39;;;;;;;5.57;3.20;;;;;;;;;;10475067;28;20041;-75
2022/07/07 23:55:43;;;;;;;5.18;2.80;;;;;;;;;;10488896;28;20041;-76
